sensor_id;sensor_type;location;lat;lon;timestamp;P1;durP1;ratioP1;P2;durP2;ratioP2
9310;SDS011;4694;52.464;13.480;2022-11-23T06:48:21;58.80;;;24.52;;
9310;SDS011;4694;52.464;13.480;2022-11-23T06:50:48;60.83;;;23.00;;
9310;SDS011;4694;52.464;13.480;2022-11-23T06:53:15;76.85;;;26.42;;
9310;SDS011;4694;52.464;13.480;2022-11-23T06:55:42;64.65;;;26.50;;
9310;SDS011;4694;52.464;13.480;2022-11-23T06:58:10;67.90;;;29.13;;
9310;SDS011;4694;52.464;13.480;2022-11-23T07:00:37;73.80;;;28.15;;
9310;SDS011;4694;52.464;13.480;2022-11-23T07:03:05;73.68;;;28.13;;
9310;SDS011;4694;52.464;13.480;2022-11-23T07:05:33;70.03;;;32.58;;
9310;SDS011;4694;52.464;13.480;2022-11-23T07:08:00;68.38;;;27.63;;
9310;SDS011;4694;52.464;13.480;2022-11-23T07:10:27;64.68;;;30.27;;
9310;SDS011;4694;52.464;13.480;2022-11-23T07:12:54;66.65;;;29.08;;
9310;SDS011;4694;52.464;13.480;2022-11-23T07:15:21;71.97;;;31.85;;
9310;SDS011;4694;52.464;13.480;2022-11-23T07:17:48;72.85;;;30.40;;
9310;SDS011;4694;52.464;13.480;2022-11-23T07:20:15;74.43;;;30.05;;
9310;SDS011;4694;52.464;13.480;2022-11-23T07:22:43;65.63;;;29.77;;
9310;SDS011;4694;52.464;13.480;2022-11-23T07:25:10;71.43;;;33.00;;
9310;SDS011;4694;52.464;13.480;2022-11-23T07:27:40;67.60;;;28.95;;
9310;SDS011;4694;52.464;13.480;2022-11-23T07:30:08;73.75;;;32.13;;
9310;SDS011;4694;52.464;13.480;2022-11-23T07:32:35;72.53;;;31.05;;
9310;SDS011;4694;52.464;13.480;2022-11-23T07:35:02;68.30;;;28.30;;
9310;SDS011;4694;52.464;13.480;2022-11-23T07:37:29;66.32;;;29.13;;
9310;SDS011;4694;52.464;13.480;2022-11-23T07:39:58;75.57;;;30.48;;
9310;SDS011;4694;52.464;13.480;2022-11-23T07:42:25;73.70;;;31.20;;
9310;SDS011;4694;52.464;13.480;2022-11-23T07:44:52;75.47;;;30.17;;
9310;SDS011;4694;52.464;13.480;2022-11-23T07:47:19;59.95;;;28.33;;
9310;SDS011;4694;52.464;13.480;2022-11-23T07:49:46;66.53;;;29.27;;
9310;SDS011;4694;52.464;13.480;2022-11-23T07:52:13;69.32;;;29.90;;
9310;SDS011;4694;52.464;13.480;2022-11-23T07:54:40;65.45;;;27.10;;
9310;SDS011;4694;52.464;13.480;2022-11-23T07:57:08;69.75;;;28.80;;
9310;SDS011;4694;52.464;13.480;2022-11-23T07:59:35;61.45;;;26.10;;
9310;SDS011;4694;52.464;13.480;2022-11-23T08:02:02;60.42;;;26.05;;
9310;SDS011;4694;52.464;13.480;2022-11-23T08:04:29;64.18;;;26.83;;
9310;SDS011;4694;52.464;13.480;2022-11-23T08:06:56;56.97;;;26.27;;
9310;SDS011;4694;52.464;13.480;2022-11-23T08:09:24;64.78;;;28.08;;
9310;SDS011;4694;52.464;13.480;2022-11-23T08:11:51;56.22;;;26.38;;
9310;SDS011;4694;52.464;13.480;2022-11-23T08:14:20;58.60;;;28.92;;
9310;SDS011;4694;52.464;13.480;2022-11-23T08:16:47;55.38;;;27.00;;
9310;SDS011;4694;52.464;13.480;2022-11-23T08:19:14;55.72;;;26.00;;
9310;SDS011;4694;52.464;13.480;2022-11-23T08:21:42;58.28;;;27.55;;
9310;SDS011;4694;52.464;13.480;2022-11-23T08:24:09;50.88;;;23.52;;
9310;SDS011;4694;52.464;13.480;2022-11-23T08:26:36;63.03;;;27.80;;
9310;SDS011;4694;52.464;13.480;2022-11-23T08:29:03;48.80;;;21.42;;
9310;SDS011;4694;52.464;13.480;2022-11-23T08:31:32;58.30;;;24.05;;
9310;SDS011;4694;52.464;13.480;2022-11-23T08:33:59;46.20;;;21.67;;
9310;SDS011;4694;52.464;13.480;2022-11-23T08:36:26;46.25;;;21.77;;
9310;SDS011;4694;52.464;13.480;2022-11-23T08:38:53;46.30;;;22.77;;
9310;SDS011;4694;52.464;13.480;2022-11-23T08:41:20;45.75;;;22.67;;
9310;SDS011;4694;52.464;13.480;2022-11-23T08:43:47;49.40;;;22.75;;
9310;SDS011;4694;52.464;13.480;2022-11-23T08:46:14;39.85;;;20.38;;
9310;SDS011;4694;52.464;13.480;2022-11-23T08:48:43;47.65;;;22.17;;
9310;SDS011;4694;52.464;13.480;2022-11-23T08:51:10;45.08;;;21.75;;
9310;SDS011;4694;52.464;13.480;2022-11-23T08:53:37;43.63;;;20.27;;
9310;SDS011;4694;52.464;13.480;2022-11-23T08:56:04;35.33;;;18.92;;
9310;SDS011;4694;52.464;13.480;2022-11-23T08:58:32;46.42;;;20.13;;
9310;SDS011;4694;52.464;13.480;2022-11-23T09:00:59;39.67;;;20.23;;
9310;SDS011;4694;52.464;13.480;2022-11-23T09:03:26;42.55;;;19.45;;
9310;SDS011;4694;52.464;13.480;2022-11-23T09:05:57;39.22;;;18.27;;
9310;SDS011;4694;52.464;13.480;2022-11-23T09:08:24;45.65;;;21.58;;
9310;SDS011;4694;52.464;13.480;2022-11-23T09:10:51;36.55;;;20.17;;
9310;SDS011;4694;52.464;13.480;2022-11-23T09:13:18;33.83;;;17.52;;
9310;SDS011;4694;52.464;13.480;2022-11-23T09:15:45;34.88;;;18.25;;
9310;SDS011;4694;52.464;13.480;2022-11-23T09:18:12;39.63;;;18.70;;
9310;SDS011;4694;52.464;13.480;2022-11-23T09:20:39;37.35;;;19.40;;
9310;SDS011;4694;52.464;13.480;2022-11-23T09:23:08;35.78;;;18.10;;
9310;SDS011;4694;52.464;13.480;2022-11-23T09:25:35;39.95;;;18.98;;
9310;SDS011;4694;52.464;13.480;2022-11-23T09:28:02;35.97;;;21.77;;
9310;SDS011;4694;52.464;13.480;2022-11-23T09:30:29;30.05;;;17.90;;
9310;SDS011;4694;52.464;13.480;2022-11-23T09:32:56;35.35;;;17.70;;
9310;SDS011;4694;52.464;13.480;2022-11-23T09:35:23;33.88;;;17.35;;
9310;SDS011;4694;52.464;13.480;2022-11-23T09:37:54;35.47;;;16.20;;
9310;SDS011;4694;52.464;13.480;2022-11-23T09:40:22;30.45;;;16.65;;
9310;SDS011;4694;52.464;13.480;2022-11-23T09:42:59;31.50;;;16.23;;
9310;SDS011;4694;52.464;13.480;2022-11-23T09:45:32;31.50;;;17.67;;
9310;SDS011;4694;52.464;13.480;2022-11-23T09:48:13;31.60;;;16.95;;
9310;SDS011;4694;52.464;13.480;2022-11-23T09:50:44;25.70;;;14.80;;
9310;SDS011;4694;52.464;13.480;2022-11-23T09:53:12;27.60;;;15.30;;
9310;SDS011;4694;52.464;13.480;2022-11-23T09:55:43;28.35;;;16.30;;
9310;SDS011;4694;52.464;13.480;2022-11-23T09:58:11;36.08;;;17.35;;
9310;SDS011;4694;52.464;13.480;2022-11-23T10:00:40;32.97;;;17.77;;
9310;SDS011;4694;52.464;13.480;2022-11-23T10:03:10;34.90;;;17.95;;
9310;SDS011;4694;52.464;13.480;2022-11-23T10:08:09;28.75;;;16.23;;
9310;SDS011;4694;52.464;13.480;2022-11-23T10:10:40;33.60;;;16.83;;
9310;SDS011;4694;52.464;13.480;2022-11-23T10:15:56;36.60;;;16.98;;
9310;SDS011;4694;52.464;13.480;2022-11-23T10:18:29;31.77;;;17.38;;
9310;SDS011;4694;52.464;13.480;2022-11-23T10:20:58;31.50;;;16.65;;
9310;SDS011;4694;52.464;13.480;2022-11-23T10:23:33;29.60;;;16.35;;
9310;SDS011;4694;52.464;13.480;2022-11-23T10:26:06;35.47;;;16.05;;
9310;SDS011;4694;52.464;13.480;2022-11-23T10:28:34;32.28;;;16.95;;
9310;SDS011;4694;52.464;13.480;2022-11-23T10:31:06;33.17;;;18.17;;
9310;SDS011;4694;52.464;13.480;2022-11-23T10:33:39;38.60;;;17.98;;
9310;SDS011;4694;52.464;13.480;2022-11-23T10:36:07;34.50;;;18.83;;
9310;SDS011;4694;52.464;13.480;2022-11-23T10:38:35;37.50;;;18.65;;
9310;SDS011;4694;52.464;13.480;2022-11-23T10:41:04;34.80;;;17.73;;
9310;SDS011;4694;52.464;13.480;2022-11-23T10:43:33;30.90;;;15.77;;
9310;SDS011;4694;52.464;13.480;2022-11-23T10:46:23;33.47;;;16.73;;
9310;SDS011;4694;52.464;13.480;2022-11-23T10:48:50;30.15;;;15.98;;
9310;SDS011;4694;52.464;13.480;2022-11-23T10:51:20;31.85;;;17.27;;
9310;SDS011;4694;52.464;13.480;2022-11-23T10:53:49;38.88;;;18.73;;
9310;SDS011;4694;52.464;13.480;2022-11-23T10:56:18;31.13;;;16.02;;
9310;SDS011;4694;52.464;13.480;2022-11-23T10:58:45;31.80;;;17.05;;
9310;SDS011;4694;52.464;13.480;2022-11-23T11:01:13;28.58;;;16.02;;
9310;SDS011;4694;52.464;13.480;2022-11-23T11:03:41;29.75;;;17.60;;
9310;SDS011;4694;52.464;13.480;2022-11-23T11:06:08;29.88;;;13.95;;
9310;SDS011;4694;52.464;13.480;2022-11-23T11:08:44;29.05;;;17.35;;
9310;SDS011;4694;52.464;13.480;2022-11-23T11:11:20;29.20;;;14.55;;
9310;SDS011;4694;52.464;13.480;2022-11-23T11:13:48;32.78;;;16.08;;
9310;SDS011;4694;52.464;13.480;2022-11-23T11:16:17;32.03;;;16.35;;
9310;SDS011;4694;52.464;13.480;2022-11-23T11:18:45;32.63;;;15.75;;
9310;SDS011;4694;52.464;13.480;2022-11-23T11:21:16;31.08;;;15.25;;
9310;SDS011;4694;52.464;13.480;2022-11-23T11:23:45;28.38;;;13.85;;
9310;SDS011;4694;52.464;13.480;2022-11-23T11:26:17;32.90;;;15.98;;
9310;SDS011;4694;52.464;13.480;2022-11-23T11:28:46;31.42;;;17.25;;
9310;SDS011;4694;52.464;13.480;2022-11-23T11:31:19;33.20;;;16.75;;
9310;SDS011;4694;52.464;13.480;2022-11-23T11:33:52;29.38;;;15.45;;
9310;SDS011;4694;52.464;13.480;2022-11-23T11:36:21;24.90;;;13.05;;
9310;SDS011;4694;52.464;13.480;2022-11-23T11:38:50;25.10;;;14.23;;
9310;SDS011;4694;52.464;13.480;2022-11-23T11:41:18;30.13;;;16.38;;
9310;SDS011;4694;52.464;13.480;2022-11-23T11:43:49;30.38;;;15.30;;
9310;SDS011;4694;52.464;13.480;2022-11-23T11:46:19;35.88;;;16.52;;
9310;SDS011;4694;52.464;13.480;2022-11-23T11:48:48;26.80;;;13.38;;
9310;SDS011;4694;52.464;13.480;2022-11-23T11:51:18;31.17;;;15.77;;
9310;SDS011;4694;52.464;13.480;2022-11-23T11:53:47;28.52;;;15.75;;
9310;SDS011;4694;52.464;13.480;2022-11-23T11:56:26;33.78;;;16.00;;
9310;SDS011;4694;52.464;13.480;2022-11-23T11:58:54;27.92;;;15.45;;
9310;SDS011;4694;52.464;13.480;2022-11-23T12:01:26;33.60;;;16.60;;
9310;SDS011;4694;52.464;13.480;2022-11-23T12:03:55;29.48;;;17.83;;
9310;SDS011;4694;52.464;13.480;2022-11-23T12:06:25;28.55;;;15.98;;
9310;SDS011;4694;52.464;13.480;2022-11-23T12:08:54;30.73;;;14.52;;
9310;SDS011;4694;52.464;13.480;2022-11-23T12:11:25;27.23;;;14.10;;
9310;SDS011;4694;52.464;13.480;2022-11-23T12:13:53;28.52;;;14.48;;
9310;SDS011;4694;52.464;13.480;2022-11-23T12:16:27;22.50;;;12.45;;
9310;SDS011;4694;52.464;13.480;2022-11-23T12:19:05;29.48;;;12.90;;
9310;SDS011;4694;52.464;13.480;2022-11-23T12:21:40;25.92;;;13.38;;
9310;SDS011;4694;52.464;13.480;2022-11-23T12:24:11;28.98;;;14.00;;
9310;SDS011;4694;52.464;13.480;2022-11-23T12:26:43;24.55;;;13.13;;
9310;SDS011;4694;52.464;13.480;2022-11-23T12:29:23;35.95;;;15.50;;
9310;SDS011;4694;52.464;13.480;2022-11-23T12:37:09;29.27;;;13.13;;
9310;SDS011;4694;52.464;13.480;2022-11-23T12:39:47;20.40;;;12.68;;
9310;SDS011;4694;52.464;13.480;2022-11-23T12:42:19;25.77;;;12.15;;
9310;SDS011;4694;52.464;13.480;2022-11-23T12:44:55;28.17;;;14.57;;
9310;SDS011;4694;52.464;13.480;2022-11-23T12:47:28;24.33;;;13.25;;
9310;SDS011;4694;52.464;13.480;2022-11-23T12:49:59;26.13;;;12.35;;
9310;SDS011;4694;52.464;13.480;2022-11-23T12:52:34;30.80;;;12.32;;
9310;SDS011;4694;52.464;13.480;2022-11-23T12:55:12;21.48;;;13.27;;
9310;SDS011;4694;52.464;13.480;2022-11-23T12:57:41;25.30;;;13.45;;
9310;SDS011;4694;52.464;13.480;2022-11-23T13:00:11;22.55;;;12.80;;
9310;SDS011;4694;52.464;13.480;2022-11-23T13:05:30;23.10;;;11.32;;
9310;SDS011;4694;52.464;13.480;2022-11-23T13:11:02;25.35;;;13.93;;
9310;SDS011;4694;52.464;13.480;2022-11-23T13:13:33;27.33;;;13.15;;
9310;SDS011;4694;52.464;13.480;2022-11-23T13:16:12;22.15;;;12.32;;
9310;SDS011;4694;52.464;13.480;2022-11-23T13:18:48;24.42;;;14.57;;
9310;SDS011;4694;52.464;13.480;2022-11-23T13:21:21;25.48;;;12.20;;
9310;SDS011;4694;52.464;13.480;2022-11-23T13:23:50;23.67;;;13.07;;
9310;SDS011;4694;52.464;13.480;2022-11-23T13:26:20;25.50;;;12.45;;
9310;SDS011;4694;52.464;13.480;2022-11-23T13:28:47;26.60;;;14.10;;
9310;SDS011;4694;52.464;13.480;2022-11-23T13:34:42;22.38;;;12.02;;
9310;SDS011;4694;52.464;13.480;2022-11-23T13:37:01;25.27;;;12.07;;
9310;SDS011;4694;52.464;13.480;2022-11-23T13:42:25;24.10;;;12.43;;
9310;SDS011;4694;52.464;13.480;2022-11-23T13:47:38;21.63;;;13.35;;
9310;SDS011;4694;52.464;13.480;2022-11-23T13:50:16;23.65;;;13.05;;
9310;SDS011;4694;52.464;13.480;2022-11-23T13:52:47;24.77;;;13.95;;
9310;SDS011;4694;52.464;13.480;2022-11-23T13:55:17;26.33;;;13.77;;
9310;SDS011;4694;52.464;13.480;2022-11-23T13:58:32;24.90;;;13.00;;
9310;SDS011;4694;52.464;13.480;2022-11-23T14:00:45;26.48;;;13.20;;
9310;SDS011;4694;52.464;13.480;2022-11-23T14:05:58;22.25;;;12.30;;
9310;SDS011;4694;52.464;13.480;2022-11-23T14:08:26;26.55;;;14.20;;
9310;SDS011;4694;52.464;13.480;2022-11-23T14:10:53;23.33;;;12.32;;
9310;SDS011;4694;52.464;13.480;2022-11-23T14:13:23;26.33;;;12.35;;
9310;SDS011;4694;52.464;13.480;2022-11-23T14:15:54;25.50;;;11.60;;
9310;SDS011;4694;52.464;13.480;2022-11-23T14:21:20;18.15;;;13.05;;
9310;SDS011;4694;52.464;13.480;2022-11-23T14:23:56;27.15;;;13.15;;
9310;SDS011;4694;52.464;13.480;2022-11-23T14:26:30;21.02;;;12.18;;
9310;SDS011;4694;52.464;13.480;2022-11-23T14:29:16;24.70;;;11.82;;
9310;SDS011;4694;52.464;13.480;2022-11-23T14:31:50;22.70;;;11.20;;
9310;SDS011;4694;52.464;13.480;2022-11-23T14:34:22;22.98;;;12.10;;
9310;SDS011;4694;52.464;13.480;2022-11-23T14:36:52;24.95;;;13.02;;
9310;SDS011;4694;52.464;13.480;2022-11-23T14:39:33;22.20;;;14.15;;
9310;SDS011;4694;52.464;13.480;2022-11-23T14:42:03;27.08;;;14.50;;
9310;SDS011;4694;52.464;13.480;2022-11-23T14:44:34;21.27;;;10.93;;
9310;SDS011;4694;52.464;13.480;2022-11-23T14:47:03;28.75;;;12.88;;
9310;SDS011;4694;52.464;13.480;2022-11-23T14:49:30;26.02;;;12.25;;
9310;SDS011;4694;52.464;13.480;2022-11-23T14:51:58;28.85;;;14.23;;
9310;SDS011;4694;52.464;13.480;2022-11-23T14:54:25;24.15;;;12.93;;
9310;SDS011;4694;52.464;13.480;2022-11-23T14:56:54;26.77;;;11.93;;
9310;SDS011;4694;52.464;13.480;2022-11-23T14:59:23;24.85;;;12.50;;
9310;SDS011;4694;52.464;13.480;2022-11-23T15:01:53;22.63;;;10.02;;
9310;SDS011;4694;52.464;13.480;2022-11-23T15:04:24;24.00;;;14.13;;
9310;SDS011;4694;52.464;13.480;2022-11-23T15:06:53;24.98;;;13.43;;
9310;SDS011;4694;52.464;13.480;2022-11-23T15:09:24;23.70;;;11.73;;
9310;SDS011;4694;52.464;13.480;2022-11-23T15:12:04;26.25;;;12.63;;
9310;SDS011;4694;52.464;13.480;2022-11-23T15:14:31;25.75;;;13.10;;
9310;SDS011;4694;52.464;13.480;2022-11-23T15:17:11;26.52;;;12.45;;
9310;SDS011;4694;52.464;13.480;2022-11-23T15:19:39;25.47;;;11.53;;
9310;SDS011;4694;52.464;13.480;2022-11-23T15:22:11;29.42;;;13.13;;
9310;SDS011;4694;52.464;13.480;2022-11-23T15:24:39;29.83;;;16.00;;
9310;SDS011;4694;52.464;13.480;2022-11-23T15:27:06;30.00;;;14.20;;
9310;SDS011;4694;52.464;13.480;2022-11-23T15:29:34;26.50;;;13.32;;
9310;SDS011;4694;52.464;13.480;2022-11-23T15:32:01;26.00;;;13.40;;
9310;SDS011;4694;52.464;13.480;2022-11-23T15:34:28;26.25;;;14.70;;
9310;SDS011;4694;52.464;13.480;2022-11-23T15:36:57;33.05;;;16.38;;
9310;SDS011;4694;52.464;13.480;2022-11-23T15:39:24;31.80;;;14.60;;
9310;SDS011;4694;52.464;13.480;2022-11-23T15:41:51;29.15;;;14.65;;
9310;SDS011;4694;52.464;13.480;2022-11-23T15:44:21;32.17;;;14.93;;
9310;SDS011;4694;52.464;13.480;2022-11-23T15:46:49;32.58;;;14.68;;
9310;SDS011;4694;52.464;13.480;2022-11-23T15:49:16;27.17;;;15.32;;
9310;SDS011;4694;52.464;13.480;2022-11-23T15:51:44;36.85;;;15.25;;
9310;SDS011;4694;52.464;13.480;2022-11-23T15:54:14;30.50;;;15.50;;
9310;SDS011;4694;52.464;13.480;2022-11-23T15:56:42;25.58;;;13.05;;
9310;SDS011;4694;52.464;13.480;2022-11-23T15:59:19;30.70;;;14.43;;
9310;SDS011;4694;52.464;13.480;2022-11-23T16:01:50;32.25;;;14.98;;
9310;SDS011;4694;52.464;13.480;2022-11-23T16:04:23;36.05;;;17.40;;
9310;SDS011;4694;52.464;13.480;2022-11-23T16:06:51;31.30;;;15.68;;
9310;SDS011;4694;52.464;13.480;2022-11-23T16:09:34;32.83;;;16.20;;
9310;SDS011;4694;52.464;13.480;2022-11-23T16:12:01;30.30;;;15.48;;
9310;SDS011;4694;52.464;13.480;2022-11-23T16:14:29;36.83;;;16.10;;
9310;SDS011;4694;52.464;13.480;2022-11-23T16:17:02;35.25;;;15.77;;
9310;SDS011;4694;52.464;13.480;2022-11-23T16:19:31;31.58;;;16.50;;
